Time;durP1;ratioP1;P1;durP2;ratioP2;P2;SDS_P1;SDS_P2;PMS_P1;PMS_P2;Temp;Humidity;BMP_temperature;BMP_pressure;BME280_temperature;BME280_humidity;BME280_pressure;Samples;Min_cycle;Max_cycle;Signal;HPM_P1;HPM_P2
2022/04/21 00:02:13;;;;;;;13.68;6.28;;;;;;;10.49;56.14;101354.00;5003793;28;20048;-62
2022/04/21 00:04:38;;;;;;;10.82;5.95;;;;;;;10.44;55.81;101353.63;5006317;28;20032;-61
2022/04/21 00:07:05;;;;;;;9.95;6.35;;;;;;;10.40;55.95;101354.91;5006047;28;20038;-62
2022/04/21 00:09:30;;;;;;;9.35;6.03;;;;;;;10.41;56.33;101361.91;5003765;28;20545;-62
2022/04/21 00:11:55;;;;;;;11.13;6.30;;;;;;;10.34;56.54;101347.56;5008672;28;20116;-61
2022/04/21 00:14:20;;;;;;;9.55;6.55;;;;;;;10.33;56.87;101343.25;5004744;28;21975;-61
2022/04/21 00:16:46;;;;;;;9.50;6.57;;;;;;;10.25;56.81;101344.06;5009603;28;20108;-61
2022/04/21 00:19:12;;;;;;;8.75;5.95;;;;;;;10.20;56.97;101344.53;5000235;28;20354;-62
2022/04/21 00:24:37;;;;;;;10.43;6.75;;;;;;;10.08;57.16;101343.06;4944264;28;20462;-61
2022/04/21 00:27:03;;;;;;;7.63;6.03;;;;;;;10.01;57.05;101346.50;4989130;28;20046;-62
2022/04/21 00:29:28;;;;;;;8.23;6.20;;;;;;;9.93;57.24;101344.63;5006667;28;20057;-61
2022/04/21 00:31:53;;;;;;;10.57;6.80;;;;;;;9.84;57.25;101348.19;5004611;28;20049;-62
2022/04/21 00:34:18;;;;;;;10.13;6.53;;;;;;;9.79;57.46;101345.16;5003818;28;20075;-62
2022/04/21 00:36:45;;;;;;;10.23;6.90;;;;;;;9.73;57.80;101353.72;5006496;28;20061;-62
2022/04/21 00:39:10;;;;;;;10.15;6.47;;;;;;;9.73;57.77;101351.91;5004565;28;20052;-61
2022/04/21 00:41:35;;;;;;;9.98;6.60;;;;;;;9.74;57.92;101347.44;5003578;28;20409;-62
2022/04/21 00:44:01;;;;;;;10.75;6.53;;;;;;;9.72;58.08;101344.94;5006027;28;20036;-61
2022/04/21 00:46:26;;;;;;;11.88;6.95;;;;;;;9.74;58.13;101347.44;5002318;28;20038;-62
2022/04/21 00:48:52;;;;;;;12.15;6.72;;;;;;;9.74;58.14;101347.44;5005895;28;20040;-61
2022/04/21 00:51:17;;;;;;;12.95;6.88;;;;;;;9.72;58.31;101341.44;5004114;28;20034;-61
2022/04/21 00:53:43;;;;;;;9.88;7.22;;;;;;;9.72;58.54;101333.50;5007864;28;20152;-62
2022/04/21 00:56:09;;;;;;;13.30;7.43;;;;;;;9.68;58.35;101345.41;5002412;28;20528;-61
2022/04/21 00:58:37;;;;;;;11.45;7.25;;;;;;;9.66;58.40;101342.06;5004662;28;20061;-62
2022/04/21 01:01:03;;;;;;;15.38;7.18;;;;;;;9.62;58.20;101337.06;5005073;28;20061;-62
2022/04/21 01:03:28;;;;;;;12.52;7.70;;;;;;;9.62;58.56;101341.53;5006314;28;20068;-61
2022/04/21 01:05:54;;;;;;;10.23;7.80;;;;;;;9.63;58.73;101343.22;5004528;28;20442;-61
2022/04/21 01:08:20;;;;;;;10.82;8.60;;;;;;;9.60;58.73;101344.34;5000504;28;20446;-61
2022/04/21 01:10:46;;;;;;;12.05;7.57;;;;;;;9.60;59.00;101351.47;5005359;28;20032;-62
2022/04/21 01:13:12;;;;;;;11.00;8.02;;;;;;;9.59;59.23;101342.69;5003656;28;20021;-62
2022/04/21 01:15:38;;;;;;;10.82;7.75;;;;;;;9.56;59.25;101337.69;5007716;28;20048;-61
2022/04/21 01:18:05;;;;;;;12.82;8.18;;;;;;;9.54;59.50;101333.50;5002132;28;20038;-61
2022/04/21 01:20:31;;;;;;;10.93;7.97;;;;;;;9.47;59.62;101335.09;5005615;28;20034;-61
2022/04/21 01:22:56;;;;;;;14.15;8.10;;;;;;;9.43;59.61;101337.22;5007120;28;20092;-61
2022/04/21 01:25:23;;;;;;;12.20;7.88;;;;;;;9.35;59.66;101339.78;5004068;28;20034;-61
2022/04/21 01:27:51;;;;;;;10.43;7.60;;;;;;;9.30;59.74;101342.06;5004190;28;20650;-61
2022/04/21 01:30:17;;;;;;;11.43;7.50;;;;;;;9.33;59.46;101336.47;5007821;28;20080;-61
2022/04/21 01:32:44;;;;;;;11.75;8.10;;;;;;;9.32;59.63;101332.97;5003039;28;20289;-62
2022/04/21 01:35:11;;;;;;;14.40;8.10;;;;;;;9.29;59.95;101327.16;5004532;28;20042;-61
2022/04/21 01:43:06;;;;;;;11.98;7.75;;;;;;;9.24;60.40;101314.31;5008757;28;20089;-61
2022/04/21 01:45:32;;;;;;;16.67;8.23;;;;;;;9.24;60.27;101321.44;5005628;28;20030;-61
2022/04/21 01:47:57;;;;;;;10.63;7.80;;;;;;;9.19;60.14;101324.53;5009926;28;20084;-61
2022/04/21 01:50:24;;;;;;;12.40;8.48;;;;;;;9.20;60.21;101315.59;5007086;28;20452;-61
2022/04/21 01:52:49;;;;;;;11.27;8.68;;;;;;;9.18;60.51;101319.38;5004177;28;20472;-62
2022/04/21 01:55:14;;;;;;;13.15;7.80;;;;;;;9.16;60.38;101316.88;5009865;28;20083;-61
2022/04/21 01:57:39;;;;;;;11.90;8.57;;;;;;;9.14;60.33;101318.03;5007360;28;20056;-62
2022/04/21 02:00:05;;;;;;;14.10;8.50;;;;;;;9.14;60.64;101318.84;5006990;28;20069;-62
2022/04/21 02:02:32;;;;;;;10.75;8.75;;;;;;;9.13;61.01;101317.19;5005700;28;20092;-61
2022/04/21 02:04:59;;;;;;;17.13;8.65;;;;;;;9.11;61.14;101316.50;5008330;28;20481;-61
2022/04/21 02:07:25;;;;;;;13.10;8.50;;;;;;;9.13;61.06;101324.31;5009412;28;20029;-61
2022/04/21 02:09:51;;;;;;;16.67;8.52;;;;;;;9.13;60.60;101319.00;5005918;28;20448;-61
2022/04/21 02:12:17;;;;;;;12.35;8.60;;;;;;;9.00;61.14;101303.50;5007869;28;20040;-61
2022/04/21 02:14:42;;;;;;;12.60;8.50;;;;;;;9.03;60.79;101321.72;5009568;28;20078;-61
2022/04/21 02:17:08;;;;;;;10.55;8.43;;;;;;;9.00;60.91;101314.09;5010294;28;20370;-61
2022/04/21 02:19:33;;;;;;;10.30;7.68;;;;;;;8.97;60.83;101312.56;5006561;28;20057;-61
2022/04/21 02:21:58;;;;;;;12.35;8.00;;;;;;;8.91;60.88;101310.47;5007077;28;20033;-61
2022/04/21 02:24:24;;;;;;;12.43;8.25;;;;;;;8.87;61.00;101310.94;5010193;28;20040;-61
2022/04/21 02:26:50;;;;;;;13.07;8.25;;;;;;;8.86;61.15;101314.56;5008173;28;20026;-61
2022/04/21 02:29:15;;;;;;;12.00;8.35;;;;;;;8.85;61.25;101316.38;5006119;28;20045;-61
2022/04/21 02:31:40;;;;;;;13.63;8.27;;;;;;;8.76;61.04;101311.97;5007312;28;20048;-61
2022/04/21 02:34:05;;;;;;;14.02;8.63;;;;;;;8.74;61.16;101318.41;5005420;28;20022;-61
2022/04/21 02:36:31;;;;;;;13.73;8.35;;;;;;;8.71;61.40;101314.25;5007778;28;20450;-61
2022/04/21 02:38:56;;;;;;;12.15;8.30;;;;;;;8.69;61.36;101318.84;5008394;28;20061;-61
2022/04/21 02:41:21;;;;;;;12.82;8.10;;;;;;;8.65;61.52;101320.09;5007468;28;20080;-61
2022/04/21 02:43:46;;;;;;;10.38;8.30;;;;;;;8.62;61.48;101317.75;5011946;28;20117;-61
2022/04/21 02:46:13;;;;;;;10.35;8.27;;;;;;;8.58;61.54;101311.06;5004486;28;20405;-61
2022/04/21 02:48:38;;;;;;;11.02;8.07;;;;;;;8.53;61.24;101310.69;5003218;28;20124;-61
2022/04/21 02:51:04;;;;;;;11.05;8.18;;;;;;;8.42;61.37;101297.66;5008629;28;20112;-61
2022/04/21 02:59:00;;;;;;;14.25;8.23;;;;;;;8.46;61.26;101317.53;5004727;28;20113;-61
2022/04/21 03:01:26;;;;;;;12.35;7.80;;;;;;;8.43;61.67;101316.03;5008478;28;20026;-61
2022/04/21 03:03:51;;;;;;;11.38;8.18;;;;;;;8.40;61.50;101316.31;5010692;28;20034;-61
2022/04/21 03:06:17;;;;;;;14.73;8.07;;;;;;;8.38;61.65;101308.53;5008266;28;20060;-62
2022/04/21 03:08:42;;;;;;;12.38;8.15;;;;;;;8.34;61.79;101312.41;5005892;28;20030;-61
2022/04/21 03:11:08;;;;;;;9.77;7.85;;;;;;;8.37;61.95;101309.47;5007511;28;20481;-61
2022/04/21 03:13:33;;;;;;;11.13;7.95;;;;;;;8.36;61.93;101313.09;5005925;28;20483;-61
2022/04/21 03:15:58;;;;;;;11.30;7.93;;;;;;;8.36;61.83;101313.09;5010076;28;20024;-61
2022/04/21 03:18:23;;;;;;;11.45;8.15;;;;;;;8.35;61.99;101306.13;5003126;28;20045;-61
2022/04/21 03:26:17;;;;;;;11.02;7.80;;;;;;;8.32;61.96;101300.28;5006220;28;20443;-61
2022/04/21 03:28:43;;;;;;;13.20;8.15;;;;;;;8.31;62.05;101301.25;5018232;28;20022;-61
2022/04/21 03:31:08;;;;;;;11.27;7.97;;;;;;;8.30;61.82;101303.06;5004932;28;20485;-61
2022/04/21 03:33:33;;;;;;;13.02;8.00;;;;;;;8.32;62.09;101305.56;5006765;28;20029;-61
2022/04/21 03:35:59;;;;;;;11.77;8.35;;;;;;;8.28;61.86;101301.53;5005755;28;20018;-61
2022/04/21 03:38:24;;;;;;;11.65;8.48;;;;;;;8.20;61.90;101288.22;5005671;28;20065;-61
2022/04/21 03:40:50;;;;;;;14.27;8.88;;;;;;;8.24;62.01;101295.72;5008526;28;20040;-61
2022/04/21 03:43:15;;;;;;;11.82;8.23;;;;;;;8.23;61.90;101303.78;5006668;28;20025;-61
2022/04/21 03:45:40;;;;;;;12.80;8.20;;;;;;;8.19;61.85;101305.91;5008489;28;20441;-61
2022/04/21 03:48:06;;;;;;;11.27;8.40;;;;;;;8.19;62.00;101307.72;5005092;28;20021;-61
2022/04/21 03:50:31;;;;;;;14.25;8.18;;;;;;;8.17;61.92;101307.03;5005019;28;20488;-61
2022/04/21 03:52:57;;;;;;;18.20;8.85;;;;;;;8.11;62.10;101304.97;5006797;28;20549;-61
2022/04/21 03:55:22;;;;;;;11.32;8.27;;;;;;;8.11;62.16;101304.97;5004617;28;20034;-61
2022/04/21 03:57:48;;;;;;;14.60;8.60;;;;;;;8.08;62.28;101319.28;5007306;28;20353;-61
2022/04/21 04:00:13;;;;;;;13.90;8.40;;;;;;;8.05;62.30;101314.28;5007849;28;20029;-61
2022/04/21 04:02:38;;;;;;;12.38;7.95;;;;;;;8.05;62.43;101314.28;5011221;28;20163;-61
2022/04/21 04:05:04;;;;;;;12.02;8.32;;;;;;;8.01;62.30;101315.53;5016371;28;20030;-61
2022/04/21 04:12:57;;;;;;;11.43;8.07;;;;;;;8.03;62.07;101317.06;5011612;28;20176;-61
2022/04/21 04:15:23;;;;;;;11.88;8.23;;;;;;;8.03;62.33;101325.00;5021989;28;20434;-61
2022/04/21 04:17:48;;;;;;;11.40;8.20;;;;;;;8.02;62.34;101317.19;5016735;28;20029;-61
2022/04/21 04:20:14;;;;;;;13.52;7.95;;;;;;;7.94;62.34;101311.81;5013791;28;20059;-61
2022/04/21 04:22:40;;;;;;;13.00;7.90;;;;;;;7.92;62.44;101306.66;5019396;28;20389;-61
2022/04/21 04:25:06;;;;;;;11.10;7.57;;;;;;;7.93;62.51;101318.91;5008074;28;20061;-60
2022/04/21 04:27:31;;;;;;;12.35;7.97;;;;;;;7.92;62.58;101316.41;5014104;28;20022;-61
2022/04/21 04:29:56;;;;;;;11.68;8.73;;;;;;;7.96;62.65;101317.78;5014964;28;20044;-61
2022/04/21 04:32:22;;;;;;;10.18;8.00;;;;;;;7.81;62.61;101301.53;5013803;28;20452;-61
2022/04/21 04:34:47;;;;;;;13.45;8.05;;;;;;;7.88;62.66;101315.00;5011591;28;20446;-61
2022/04/21 04:37:13;;;;;;;16.00;8.55;;;;;;;7.86;62.69;101322.25;5007365;28;20779;-61
2022/04/21 04:39:38;;;;;;;13.82;8.23;;;;;;;7.72;62.86;101300.53;5007888;28;20064;-61
2022/04/21 04:42:22;;;;;;;18.77;8.95;;;;;;;7.82;62.86;101326.16;5005758;28;20030;-61
2022/04/21 04:47:37;;;;;;;10.45;7.93;;;;;;;7.82;62.73;101327.00;5004500;28;20041;-61
2022/04/21 04:50:03;;;;;;;9.73;7.90;;;;;;;7.77;62.69;101319.47;5004089;28;20350;-61
2022/04/21 04:52:28;;;;;;;14.05;8.20;;;;;;;7.81;62.86;101325.31;5003325;28;20040;-61
2022/04/21 04:54:53;;;;;;;14.73;8.35;;;;;;;7.84;62.81;101325.03;5003100;28;20034;-61
2022/04/21 04:57:18;;;;;;;14.43;8.60;;;;;;;7.82;62.72;101329.63;5004427;28;20030;-61
2022/04/21 04:59:44;;;;;;;10.27;8.48;;;;;;;7.83;62.97;101325.19;5000520;28;20444;-61
2022/04/21 05:02:09;;;;;;;12.07;8.25;;;;;;;7.87;63.14;101329.22;5006523;28;20033;-61
2022/04/21 05:04:34;;;;;;;14.13;8.75;;;;;;;7.86;63.14;101332.84;5009581;28;20028;-61
2022/04/21 05:07:00;;;;;;;13.13;9.02;;;;;;;7.89;63.35;101336.03;5011527;28;20032;-61
2022/04/21 05:09:25;;;;;;;12.93;9.00;;;;;;;7.87;63.45;101340.63;5019854;28;20441;-61
2022/04/21 05:11:52;;;;;;;14.82;9.00;;;;;;;7.89;63.54;101330.75;5013832;28;20037;-61
2022/04/21 05:14:18;;;;;;;14.77;8.88;;;;;;;7.93;63.50;101333.94;5012984;28;20079;-61
2022/04/21 05:16:44;;;;;;;14.82;8.77;;;;;;;7.92;63.80;101327.81;5019225;28;20025;-61
2022/04/21 05:19:10;;;;;;;13.35;9.93;;;;;;;7.98;63.75;101335.16;5009915;28;20072;-61
2022/04/21 05:21:37;;;;;;;15.73;9.40;;;;;;;8.05;63.99;101324.84;5021437;28;20181;-61
2022/04/21 05:24:04;;;;;;;14.85;9.35;;;;;;;8.11;64.18;101331.41;5019403;28;20080;-61
2022/04/21 05:26:31;;;;;;;16.17;10.25;;;;;;;8.16;64.39;101324.72;5021764;28;20030;-61
2022/04/21 05:28:58;;;;;;;15.32;9.90;;;;;;;8.29;64.63;101322.56;5021057;28;20056;-61
2022/04/21 05:31:26;;;;;;;14.48;9.85;;;;;;;8.43;64.53;101325.78;5011374;28;20025;-61
2022/04/21 05:33:52;;;;;;;14.55;10.38;;;;;;;8.45;64.81;101319.34;5014203;28;20575;-61
2022/04/21 05:36:18;;;;;;;16.58;10.27;;;;;;;8.51;64.46;101323.22;5017247;28;20061;-61
2022/04/21 05:38:46;;;;;;;14.07;10.32;;;;;;;8.68;64.81;101325.97;5024667;28;20034;-62
2022/04/21 05:41:13;;;;;;;15.77;10.05;;;;;;;8.80;64.81;101336.34;5013232;28;20152;-61
2022/04/21 05:43:39;;;;;;;15.70;9.95;;;;;;;8.87;64.72;101327.66;5013407;28;20104;-61
2022/04/21 05:46:06;;;;;;;13.65;10.02;;;;;;;8.96;64.98;101334.75;5028022;28;20025;-61
2022/04/21 05:48:32;;;;;;;14.68;9.98;;;;;;;9.05;64.92;101321.56;5023277;28;20370;-61
2022/04/21 05:50:57;;;;;;;15.48;9.70;;;;;;;9.15;64.84;101325.81;5017809;28;20049;-61
2022/04/21 05:53:24;;;;;;;15.00;10.38;;;;;;;9.23;64.63;101333.84;5021875;28;20026;-61
2022/04/21 05:55:51;;;;;;;14.90;9.95;;;;;;;9.28;64.42;101328.13;5013582;28;20536;-61
2022/04/21 05:58:16;;;;;;;16.13;10.35;;;;;;;9.35;64.50;101331.00;5014363;28;20389;-61
2022/04/21 06:00:42;;;;;;;15.38;9.73;;;;;;;9.44;64.47;101333.56;5015343;28;20040;-61
2022/04/21 06:03:08;;;;;;;23.15;10.75;;;;;;;9.54;64.41;101326.41;5016225;28;20191;-61
2022/04/21 06:05:33;;;;;;;15.57;10.35;;;;;;;9.63;64.44;101335.25;5029092;28;20039;-61
2022/04/21 06:07:58;;;;;;;14.93;10.55;;;;;;;9.72;64.25;101322.88;5014600;28;20026;-61
2022/04/21 06:10:24;;;;;;;15.85;10.27;;;;;;;9.81;64.10;101333.41;5024860;28;20128;-61
2022/04/21 06:12:50;;;;;;;16.60;10.05;;;;;;;9.90;63.79;101324.53;5015011;28;20036;-61
2022/04/21 06:15:16;;;;;;;15.93;10.18;;;;;;;10.00;63.62;101323.59;5013875;28;20145;-61
2022/04/21 06:17:42;;;;;;;17.42;9.75;;;;;;;10.09;63.37;101315.53;5018806;28;20052;-61
2022/04/21 06:20:08;;;;;;;13.02;9.30;;;;;;;10.17;63.04;101320.09;5010164;28;20026;-61
2022/04/21 06:22:34;;;;;;;14.05;9.80;;;;;;;10.22;62.68;101323.97;5009774;28;20030;-61
2022/04/21 06:24:59;;;;;;;13.85;9.45;;;;;;;10.30;62.70;101322.34;5010169;28;20040;-61
2022/04/21 06:27:24;;;;;;;18.85;9.80;;;;;;;10.42;62.54;101321.94;5008764;28;20044;-61
2022/04/21 06:29:49;;;;;;;16.20;9.63;;;;;;;10.50;62.42;101316.66;5009355;28;20549;-61
2022/04/21 06:32:15;;;;;;;12.35;9.18;;;;;;;10.58;62.36;101317.69;5009390;28;20026;-60
2022/04/21 06:34:40;;;;;;;15.02;9.93;;;;;;;10.64;61.95;101311.72;5009958;28;20560;-61
2022/04/21 06:37:05;;;;;;;12.95;8.98;;;;;;;10.75;61.91;101324.75;5009159;28;20040;-61
2022/04/21 06:39:31;;;;;;;12.40;8.68;;;;;;;10.88;61.68;101319.78;5009166;28;20042;-61
2022/04/21 06:41:56;;;;;;;13.32;8.93;;;;;;;11.01;60.91;101317.53;5008436;28;20030;-61
2022/04/21 06:49:49;;;;;;;15.93;8.68;;;;;;;11.29;59.79;101309.28;5007030;28;20045;-61
2022/04/21 06:52:14;;;;;;;10.55;8.30;;;;;;;11.36;59.25;101307.63;5002699;28;20037;-61
2022/04/21 06:54:39;;;;;;;14.15;8.35;;;;;;;11.42;58.84;101307.81;5002440;28;20045;-62
2022/04/21 06:57:05;;;;;;;14.70;8.40;;;;;;;11.55;58.91;101309.97;5002187;28;20033;-61
2022/04/21 06:59:30;;;;;;;15.48;8.25;;;;;;;11.72;58.94;101300.16;5003947;28;20136;-61
2022/04/21 07:01:55;;;;;;;12.88;9.10;;;;;;;11.86;58.75;101296.06;5002922;28;20069;-61
2022/04/21 07:04:20;;;;;;;13.95;7.93;;;;;;;11.91;57.96;101304.38;5001261;28;20041;-61
2022/04/21 07:06:46;;;;;;;15.52;8.95;;;;;;;12.02;57.30;101299.50;5003435;28;20072;-61
2022/04/21 07:09:11;;;;;;;14.00;8.10;;;;;;;12.10;57.80;101299.50;4999816;28;20040;-61
2022/04/21 07:11:38;;;;;;;10.65;8.45;;;;;;;12.16;57.39;101307.81;5006619;28;20030;-61
2022/04/21 07:14:04;;;;;;;12.45;9.00;;;;;;;12.24;57.25;101303.31;5005986;28;20030;-61
2022/04/21 07:16:29;;;;;;;10.55;7.70;;;;;;;12.27;57.28;101310.94;5000566;28;20026;-61
2022/04/21 07:18:54;;;;;;;15.38;7.32;;;;;;;12.34;56.79;101300.44;5004644;28;20520;-61
2022/04/21 07:21:19;;;;;;;12.88;7.63;;;;;;;12.42;56.38;101300.41;5002730;28;20049;-61
2022/04/21 07:23:45;;;;;;;13.68;7.07;;;;;;;12.50;56.24;101304.91;5006408;28;20028;-61
2022/04/21 07:26:10;;;;;;;13.05;7.40;;;;;;;12.53;55.66;101304.56;5006852;28;20080;-61
2022/04/21 07:28:36;;;;;;;10.48;6.60;;;;;;;12.57;55.49;101309.38;5004057;28;20034;-61
2022/04/21 07:31:02;;;;;;;16.75;7.85;;;;;;;12.63;55.20;101322.00;5003608;28;20389;-61
2022/04/21 07:33:27;;;;;;;17.25;7.53;;;;;;;12.64;54.88;101315.66;5007721;28;20543;-60
2022/04/21 07:35:52;;;;;;;14.35;7.85;;;;;;;12.73;55.27;101321.81;4998254;28;20034;-61
2022/04/21 07:38:17;;;;;;;11.45;7.18;;;;;;;12.79;55.11;101317.63;4999264;28;20121;-61
2022/04/21 07:40:43;;;;;;;17.88;7.65;;;;;;;12.88;55.21;101321.91;5010355;28;20030;-60
2022/04/21 07:43:09;;;;;;;10.77;7.60;;;;;;;12.93;54.88;101314.19;5007814;28;20112;-61
2022/04/21 07:45:38;;;;;;;12.27;7.22;;;;;;;12.98;54.50;101318.00;5017119;28;20728;-61
2022/04/21 07:48:04;;;;;;;8.88;6.90;;;;;;;13.11;54.30;101319.28;5002245;28;20655;-60
2022/04/21 07:50:29;;;;;;;14.25;7.18;;;;;;;13.16;54.26;101314.25;5004262;28;20108;-61
2022/04/21 07:53:13;;;;;;;13.02;6.88;;;;;;;13.23;53.92;101309.91;5007321;28;20032;-61
2022/04/21 07:55:39;;;;;;;10.80;6.93;;;;;;;13.32;53.83;101311.53;5000949;28;20038;-61
2022/04/21 07:58:06;;;;;;;8.65;6.93;;;;;;;13.40;54.16;101316.81;5005982;28;20114;-61
2022/04/21 08:00:38;;;;;;;14.88;7.15;;;;;;;13.40;53.70;101310.63;5104196;27;20165;-58
2022/04/21 08:03:05;;;;;;;10.10;6.55;;;;;;;13.56;53.33;101314.00;5084572;28;20028;-59
2022/04/21 08:05:31;;;;;;;9.13;6.20;;;;;;;13.58;53.41;101313.81;5079147;28;20392;-61
2022/04/21 08:07:57;;;;;;;11.30;6.38;;;;;;;13.62;53.45;101309.81;5080818;28;20020;-61
2022/04/21 08:10:23;;;;;;;7.38;5.90;;;;;;;13.68;52.78;101317.09;5081260;28;20025;-60
2022/04/21 08:12:51;;;;;;;8.02;6.18;;;;;;;13.72;52.30;101321.06;5078022;28;20498;-61
2022/04/21 08:15:31;;;;;;;35.60;7.90;;;;;;;13.79;52.71;101327.34;5076545;28;20020;-60
2022/04/21 08:17:58;;;;;;;11.00;6.47;;;;;;;13.83;53.23;101319.78;5079407;28;20032;-60
2022/04/21 08:20:25;;;;;;;8.38;6.57;;;;;;;13.92;53.18;101319.56;5077052;28;20018;-60
2022/04/21 08:22:50;;;;;;;8.52;6.15;;;;;;;13.89;53.10;101311.91;5076750;28;20037;-61
2022/04/21 08:33:28;;;;;;;8.40;5.13;;;;;;;13.74;51.95;101295.03;5080140;28;20035;-61
2022/04/21 08:35:58;;;;;;;6.70;5.22;;;;;;;13.78;52.22;101324.84;5083418;28;20020;-61
2022/04/21 08:38:24;;;;;;;8.70;5.60;;;;;;;13.79;52.41;101316.66;5082039;28;20020;-60
2022/04/21 08:40:55;;;;;;;7.93;5.28;;;;;;;13.91;52.76;101312.56;5080802;28;20387;-60
2022/04/21 08:43:22;;;;;;;10.77;5.68;;;;;;;13.96;52.83;101314.69;5068384;28;20337;-61
2022/04/21 08:45:49;;;;;;;8.77;5.10;;;;;;;14.07;52.48;101310.75;5072884;28;20073;-60
2022/04/21 08:48:16;;;;;;;13.00;5.28;;;;;;;14.17;52.18;101319.34;5082747;28;20035;-60
2022/04/21 08:50:42;;;;;;;11.98;5.68;;;;;;;14.30;52.05;101314.19;5083401;28;20128;-60
2022/04/21 08:53:14;;;;;;;10.52;5.20;;;;;;;14.43;52.60;101303.69;5083359;28;20084;-60
2022/04/21 08:55:39;;;;;;;8.88;5.22;;;;;;;14.53;52.27;101304.28;5083135;28;20111;-60
2022/04/21 08:58:05;;;;;;;6.65;5.10;;;;;;;14.68;51.46;101301.56;5079965;28;20751;-60
2022/04/21 09:00:31;;;;;;;6.55;4.55;;;;;;;14.69;50.63;101305.06;5080395;28;20028;-60
2022/04/21 09:02:57;;;;;;;20.92;4.93;;;;;;;14.74;50.54;101305.34;5083371;28;20511;-60
2022/04/21 09:05:26;;;;;;;17.25;5.45;;;;;;;14.78;49.95;101299.47;5081119;28;20081;-60
2022/04/21 09:07:52;;;;;;;4.95;4.30;;;;;;;14.81;49.06;101296.41;5079592;28;20032;-61
2022/04/21 09:10:19;;;;;;;8.27;3.78;;;;;;;14.92;48.49;101303.09;5079428;28;20024;-60
2022/04/21 09:12:50;;;;;;;7.10;4.05;;;;;;;14.95;48.20;101300.06;5069077;28;20020;-60
2022/04/21 09:15:20;;;;;;;9.48;4.30;;;;;;;14.97;47.91;101292.66;5070176;28;20025;-60
2022/04/21 09:17:48;;;;;;;7.40;4.47;;;;;;;14.91;47.30;101300.63;5067162;28;20033;-61
2022/04/21 09:20:21;;;;;;;7.57;4.53;;;;;;;14.94;47.23;101290.38;5069766;28;20048;-60
2022/04/21 09:22:55;;;;;;;7.65;4.40;;;;;;;14.98;47.09;101293.50;5069515;28;20086;-60
2022/04/21 09:25:43;;;;;;;7.10;4.75;;;;;;;15.16;47.57;101284.03;5066856;28;20021;-61
2022/04/21 09:28:21;;;;;;;5.72;4.28;;;;;;;15.27;46.58;101280.03;5057377;28;20090;-61
2022/04/21 09:30:46;;;;;;;6.90;3.90;;;;;;;15.51;46.21;101281.50;5069518;28;20066;-61
2022/04/21 09:33:24;;;;;;;6.25;3.55;;;;;;;15.64;45.96;101284.34;5069050;28;20036;-60
2022/04/21 09:35:49;;;;;;;9.07;3.60;;;;;;;15.73;44.68;101280.50;5069332;28;20024;-60
2022/04/21 09:38:18;;;;;;;8.38;3.90;;;;;;;15.88;44.12;101266.19;5068053;28;20783;-60
2022/04/21 09:40:45;;;;;;;9.27;3.50;;;;;;;16.03;44.04;101273.09;5069646;28;20062;-61
2022/04/21 09:43:11;;;;;;;4.53;2.80;;;;;;;16.20;42.90;101262.91;5068736;28;20033;-60
2022/04/21 09:48:24;;;;;;;23.67;3.63;;;;;;;16.41;41.30;101270.03;5068206;28;20230;-61
2022/04/21 09:50:51;;;;;;;5.47;2.38;;;;;;;16.43;40.67;101273.34;5058843;28;20059;-61
2022/04/21 09:53:23;;;;;;;6.82;2.83;;;;;;;16.57;40.54;101267.03;5065520;28;20055;-61
2022/04/21 09:55:51;;;;;;;4.97;2.70;;;;;;;16.61;39.98;101272.81;5065196;28;20036;-60
2022/04/21 09:58:17;;;;;;;6.10;2.50;;;;;;;16.69;40.18;101267.31;5067535;28;20023;-61
2022/04/21 10:00:44;;;;;;;9.85;3.10;;;;;;;16.69;39.69;101269.97;5068011;28;20487;-61
2022/04/21 10:03:10;;;;;;;7.18;3.00;;;;;;;16.68;39.81;101263.78;5068861;28;20029;-61
2022/04/21 10:05:37;;;;;;;10.77;3.42;;;;;;;16.84;40.00;101272.53;5069388;28;20017;-61
2022/04/21 10:08:05;;;;;;;4.85;2.95;;;;;;;16.89;39.75;101265.53;5067927;28;20024;-61
2022/04/21 10:10:34;;;;;;;34.25;4.20;;;;;;;17.04;40.41;101250.06;5067544;28;20104;-61
2022/04/21 10:13:01;;;;;;;6.70;3.50;;;;;;;17.18;40.54;101267.03;5068545;28;20396;-61
2022/04/21 10:15:29;;;;;;;8.55;3.60;;;;;;;17.34;39.64;101263.13;5068791;28;20028;-60
2022/04/21 10:17:54;;;;;;;6.63;3.13;;;;;;;17.49;39.61;101253.03;5066054;28;20107;-60
2022/04/21 10:20:22;;;;;;;7.57;3.38;;;;;;;17.66;39.55;101248.09;5068700;28;20019;-61
2022/04/21 10:22:49;;;;;;;5.28;3.50;;;;;;;17.73;39.48;101245.44;5067155;28;20020;-61
2022/04/21 10:25:14;;;;;;;5.75;3.30;;;;;;;17.81;39.05;101242.53;5068682;28;20637;-61
2022/04/21 10:27:42;;;;;;;6.70;3.15;;;;;;;17.92;39.08;101239.19;5066872;28;20074;-61
2022/04/21 10:30:30;;;;;;;6.03;2.85;;;;;;;18.00;38.42;101236.31;5067712;28;20116;-60
2022/04/21 10:32:58;;;;;;;5.95;2.65;;;;;;;18.13;38.28;101235.44;5064354;28;20455;-61
2022/04/21 10:35:23;;;;;;;3.78;2.78;;;;;;;18.11;38.22;101229.44;5060258;28;20082;-60
2022/04/21 10:38:14;;;;;;;8.40;2.20;;;;;;;18.33;37.32;101241.59;5060707;28;20020;-61
2022/04/21 10:41:12;;;;;;;5.13;2.40;;;;;;;18.27;36.11;101213.69;5064218;28;20275;-61
2022/04/21 10:43:52;;;;;;;2.13;1.60;;;;;;;18.06;34.39;101230.09;5052393;28;20102;-61
2022/04/21 10:46:20;;;;;;;4.80;2.08;;;;;;;17.90;34.28;101219.78;5066180;28;20518;-60
2022/04/21 10:48:45;;;;;;;2.55;2.00;;;;;;;17.86;34.93;101226.59;5062305;28;20112;-60
2022/04/21 10:51:11;;;;;;;3.70;2.25;;;;;;;17.76;34.15;101212.78;5067737;28;20099;-61
2022/04/21 11:00:05;;;;;;;5.82;2.45;;;;;;;17.57;34.35;101207.16;5063403;28;20148;-60
2022/04/21 11:02:44;;;;;;;4.22;2.30;;;;;;;17.79;35.03;101215.03;5065960;28;20111;-61
2022/04/21 11:05:21;;;;;;;5.65;2.70;;;;;;;17.92;35.23;101201.56;5065031;28;20107;-61
2022/04/21 11:07:50;;;;;;;8.35;3.00;;;;;;;17.88;34.80;101205.72;5059851;28;20071;-61
2022/04/21 11:10:39;;;;;;;5.43;2.45;;;;;;;17.92;34.36;101210.47;5055094;28;20017;-61
2022/04/21 11:13:08;;;;;;;5.70;2.17;;;;;;;18.14;34.34;101210.22;5067177;28;20021;-61
2022/04/21 11:15:50;;;;;;;7.03;2.83;;;;;;;18.27;33.52;101216.38;5056686;28;20518;-61
2022/04/21 11:18:28;;;;;;;4.85;2.38;;;;;;;18.32;34.03;101210.38;5066500;28;20035;-61
2022/04/21 11:21:20;;;;;;;7.57;2.88;;;;;;;18.53;33.61;101212.78;5067122;28;20032;-61
2022/04/21 11:23:45;;;;;;;4.18;2.38;;;;;;;18.70;33.78;101202.38;5067992;28;20028;-60
2022/04/21 11:26:11;;;;;;;7.00;2.50;;;;;;;18.48;32.64;101191.06;5067390;28;20030;-61
2022/04/21 11:28:45;;;;;;;6.00;2.30;;;;;;;18.61;33.16;101186.66;5066649;28;20068;-60
2022/04/21 11:31:11;;;;;;;3.53;2.00;;;;;;;18.83;33.43;101188.03;5067620;28;20024;-61
2022/04/21 11:33:38;;;;;;;3.72;2.58;;;;;;;18.95;33.80;101185.47;5066621;28;20453;-61
2022/04/21 11:36:08;;;;;;;4.63;2.70;;;;;;;18.83;33.16;101178.09;5067220;28;20396;-60
2022/04/21 11:38:41;;;;;;;5.40;2.58;;;;;;;18.87;33.59;101182.00;5065965;28;20064;-61
2022/04/21 11:41:08;;;;;;;4.78;2.20;;;;;;;19.00;33.34;101169.47;5067423;28;20060;-61
2022/04/21 11:43:38;;;;;;;3.70;2.30;;;;;;;19.08;31.80;101167.38;5063131;28;20430;-61
2022/04/21 11:46:05;;;;;;;9.27;2.45;;;;;;;19.10;31.78;101167.97;5058347;28;20494;-61
2022/04/21 11:48:40;;;;;;;6.97;2.20;;;;;;;19.15;32.31;101161.91;5052629;28;20016;-61
2022/04/21 11:51:06;;;;;;;12.73;4.47;;;;;;;19.16;32.30;101152.81;5067771;28;20039;-61
2022/04/21 11:53:36;;;;;;;5.53;2.00;;;;;;;19.16;31.58;101163.56;5067325;28;20039;-61
2022/04/21 11:56:01;;;;;;;;;;;;;;;19.28;31.47;101167.19;5067199;28;20028;-61
2022/04/21 11:58:27;;;;;;;5.32;2.33;;;;;;;19.24;31.54;101147.13;5066486;28;20038;-61
2022/04/21 12:06:32;;;;;;;6.07;2.42;;;;;;;19.09;32.38;101147.47;5066520;28;20067;-61
2022/04/21 12:08:57;;;;;;;7.70;2.08;;;;;;;19.18;32.65;101148.84;5066250;28;20026;-61
2022/04/21 12:11:23;;;;;;;3.67;2.50;;;;;;;19.25;31.50;101147.94;5066294;28;20054;-60
2022/04/21 12:13:49;;;;;;;2.67;2.17;;;;;;;19.15;31.33;101151.16;5067081;28;20430;-61
2022/04/21 12:16:36;;;;;;;4.78;2.63;;;;;;;19.27;32.00;101141.31;5066383;28;20051;-61
2022/04/21 12:19:14;;;;;;;6.13;2.80;;;;;;;19.25;32.18;101143.41;5065891;28;20111;-61
2022/04/21 12:21:39;;;;;;;5.60;3.00;;;;;;;19.18;32.46;101135.38;5055025;28;20032;-60